Terminal Aerodrome Forecast
Issued by NWS Twin Cities, MN

Home | Current Version | Previous Version | Text Only | Print | Product List | Glossary On
Versions: 1 2 3 4 5 6 7 8 9 10 11 12 13 14 15 16 17 18 19 20 21 22 23 24
000
FTUS43 KMPX 012300 RRA
TAFEAU
TAF
KEAU 012343Z 0200/0224 15005KT 6SM BR SCT008 OVC018
     FM020300 VRB03KT 4SM BR OVC007
     FM020600 00000KT 1SM BR VV003
     FM020800 00000KT 1/4SM FG VV001
     FM021500 00000KT 3SM BR OVC007
     FM021700 29003KT P6SM OVC009
     FM022200 31004KT 6SM -RA OVC010=

USA.gov is the U.S. government's official web portal to all federal, state and local government web resources and services.